Time;durP1;ratioP1;P1;durP2;ratioP2;P2;SDS_P1;SDS_P2;PMS_P1;PMS_P2;Temp;Humidity;BMP_temperature;BMP_pressure;BME280_temperature;BME280_humidity;BME280_pressure;Samples;Min_cycle;Max_cycle;Signal;HPM_P1;HPM_P2
2021/07/13 00:00:19;;;;;;;13.70;8.18;;;14.60;99.90;;;;;;5010571;28;20041;-83
2021/07/13 00:02:46;;;;;;;17.13;8.57;;;14.70;99.90;;;;;;5005022;28;20049;-84
2021/07/13 00:05:17;;;;;;;12.95;9.27;;;14.70;99.90;;;;;;5009029;28;20046;-84
2021/07/13 00:07:46;;;;;;;15.63;10.27;;;14.70;99.90;;;;;;5031334;28;20041;-84
2021/07/13 00:10:15;;;;;;;16.38;10.73;;;14.70;99.90;;;;;;5030538;28;20048;-84
2021/07/13 00:12:42;;;;;;;15.50;11.20;;;14.70;99.90;;;;;;5012828;28;20095;-84
2021/07/13 00:15:18;;;;;;;16.45;10.27;;;14.80;99.90;;;;;;5014665;28;20053;-84
2021/07/13 00:17:46;;;;;;;16.75;10.30;;;14.80;99.90;;;;;;5031368;28;20068;-83
2021/07/13 00:20:13;;;;;;;13.75;10.23;;;14.80;99.90;;;;;;5032418;28;20052;-84
2021/07/13 00:22:40;;;;;;;13.18;10.40;;;14.80;99.90;;;;;;5016543;28;20049;-84
2021/07/13 00:25:08;;;;;;;13.00;10.05;;;14.90;99.90;;;;;;5017886;28;20052;-84
2021/07/13 00:27:37;;;;;;;15.30;10.38;;;14.90;99.90;;;;;;5013237;28;20052;-84
2021/07/13 00:30:07;;;;;;;17.17;9.73;;;14.90;99.90;;;;;;5022033;28;20057;-84
2021/07/13 00:32:34;;;;;;;12.25;8.35;;;15.00;99.90;;;;;;5021895;28;20037;-84
2021/07/13 00:35:01;;;;;;;15.93;7.57;;;15.00;99.90;;;;;;5005395;28;20380;-83
2021/07/13 00:37:28;;;;;;;11.80;6.78;;;15.00;99.90;;;;;;4992741;28;20048;-83
2021/07/13 00:39:55;;;;;;;11.93;7.18;;;15.00;99.90;;;;;;5007902;28;20050;-84
2021/07/13 00:42:23;;;;;;;13.15;6.88;;;15.00;99.90;;;;;;4992731;28;20041;-83
2021/07/13 00:44:50;;;;;;;14.82;7.63;;;15.10;99.90;;;;;;4978927;28;20050;-84
2021/07/13 00:47:21;;;;;;;16.20;7.78;;;15.10;99.90;;;;;;4991573;28;20050;-84
2021/07/13 00:49:49;;;;;;;10.77;6.82;;;15.10;99.90;;;;;;4994377;28;20053;-84
2021/07/13 00:52:19;;;;;;;19.92;7.22;;;15.10;99.90;;;;;;4992706;28;20046;-84
2021/07/13 00:54:50;;;;;;;14.05;6.25;;;15.20;99.90;;;;;;4992166;28;20042;-84
2021/07/13 00:57:18;;;;;;;12.02;6.30;;;15.20;99.90;;;;;;4990690;28;20055;-84
2021/07/13 00:59:46;;;;;;;14.27;6.32;;;15.20;99.90;;;;;;4993525;28;20046;-84
2021/07/13 01:02:16;;;;;;;12.23;6.28;;;15.20;99.90;;;;;;5010909;28;20112;-84
2021/07/13 01:04:58;;;;;;;13.32;6.53;;;15.20;99.90;;;;;;4984170;28;20046;-83
2021/07/13 01:07:51;;;;;;;14.43;6.65;;;15.20;99.90;;;;;;4992710;28;20416;-84
2021/07/13 01:10:31;;;;;;;11.77;6.68;;;15.20;99.90;;;;;;4993830;28;20041;-84
2021/07/13 01:13:18;;;;;;;12.82;6.38;;;15.20;99.90;;;;;;4983419;28;20042;-84
2021/07/13 01:15:52;;;;;;;10.20;6.43;;;15.20;99.90;;;;;;4998843;28;20178;-84
2021/07/13 01:18:22;;;;;;;12.70;6.22;;;15.20;99.90;;;;;;4996326;28;20124;-83
2021/07/13 01:21:17;;;;;;;11.50;7.13;;;15.20;99.90;;;;;;4993278;28;20049;-84
2021/07/13 01:23:59;;;;;;;10.63;6.05;;;15.20;99.90;;;;;;4990659;28;20108;-83
2021/07/13 01:26:44;;;;;;;12.65;7.65;;;15.30;99.90;;;;;;5008185;28;20048;-83
2021/07/13 01:29:14;;;;;;;11.10;6.68;;;15.30;99.90;;;;;;4989655;28;20049;-84
2021/07/13 01:31:43;;;;;;;10.65;7.70;;;15.30;99.90;;;;;;4992906;28;20371;-84
2021/07/13 01:34:21;;;;;;;10.68;8.38;;;15.30;99.90;;;;;;4989772;28;20049;-83
2021/07/13 01:36:52;;;;;;;11.27;8.63;;;15.30;99.90;;;;;;5010721;28;20049;-83
2021/07/13 01:39:20;;;;;;;13.27;7.63;;;15.30;99.90;;;;;;4990418;28;20050;-84
2021/07/13 01:41:49;;;;;;;9.90;8.57;;;15.30;99.90;;;;;;4992884;28;20057;-84
2021/07/13 01:44:19;;;;;;;12.77;9.10;;;15.30;99.90;;;;;;4986648;28;20050;-83
2021/07/13 01:46:49;;;;;;;12.90;8.93;;;15.30;99.90;;;;;;4987433;28;20065;-83
2021/07/13 01:49:21;;;;;;;14.15;8.57;;;15.30;99.90;;;;;;4976141;28;20105;-84
2021/07/13 01:51:50;;;;;;;13.95;8.30;;;15.30;99.90;;;;;;4979150;28;20046;-83
2021/07/13 01:54:20;;;;;;;13.98;8.95;;;15.30;99.90;;;;;;4991483;28;20053;-84
2021/07/13 01:56:52;;;;;;;11.73;6.60;;;15.30;99.90;;;;;;5007146;28;20046;-84
2021/07/13 01:59:21;;;;;;;14.65;7.93;;;15.30;99.90;;;;;;4976513;28;20050;-83
2021/07/13 02:01:48;;;;;;;13.65;7.35;;;15.30;99.90;;;;;;5005391;28;20100;-83
2021/07/13 02:04:17;;;;;;;11.68;6.65;;;15.30;99.90;;;;;;4992387;28;20053;-84
2021/07/13 02:06:45;;;;;;;13.05;7.40;;;15.30;99.90;;;;;;4992593;28;20112;-84
2021/07/13 02:09:14;;;;;;;11.98;7.70;;;15.30;99.90;;;;;;5009482;28;20052;-84
2021/07/13 02:11:44;;;;;;;11.05;7.10;;;15.30;99.90;;;;;;5008688;28;20045;-83
2021/07/13 02:14:13;;;;;;;9.13;7.32;;;15.30;99.90;;;;;;5008868;28;20050;-83
2021/07/13 02:16:41;;;;;;;12.95;7.05;;;15.30;99.90;;;;;;4983058;28;20042;-84
2021/07/13 02:19:09;;;;;;;11.35;5.82;;;15.30;99.90;;;;;;5003393;28;20510;-83
2021/07/13 02:21:36;;;;;;;6.80;5.60;;;15.30;99.90;;;;;;5008782;28;20049;-84
2021/07/13 02:24:04;;;;;;;14.63;6.90;;;15.30;99.90;;;;;;4986697;28;20567;-84
2021/07/13 02:26:52;;;;;;;8.00;5.38;;;15.30;99.90;;;;;;4994907;28;20061;-83
2021/07/13 02:29:40;;;;;;;12.05;5.40;;;15.30;99.90;;;;;;4999628;28;20064;-84
2021/07/13 02:32:12;;;;;;;8.45;5.88;;;15.30;99.90;;;;;;5014586;28;20507;-84
2021/07/13 02:34:43;;;;;;;7.63;5.20;;;15.30;99.90;;;;;;5019980;28;20132;-84
2021/07/13 02:37:12;;;;;;;8.88;5.30;;;15.30;99.90;;;;;;5019457;28;20038;-83
2021/07/13 02:39:42;;;;;;;7.22;5.63;;;15.30;99.90;;;;;;5030645;28;20151;-83
2021/07/13 02:42:10;;;;;;;9.70;5.80;;;15.30;99.90;;;;;;5017179;28;20376;-84
2021/07/13 02:44:37;;;;;;;6.95;5.35;;;15.30;99.90;;;;;;5018817;28;20494;-83
2021/07/13 02:47:07;;;;;;;10.02;4.93;;;15.30;99.90;;;;;;5022063;28;20046;-83
2021/07/13 02:49:38;;;;;;;7.50;5.32;;;15.30;99.90;;;;;;5032363;28;20051;-83
2021/07/13 02:52:07;;;;;;;7.60;5.30;;;15.30;99.90;;;;;;5030401;28;20079;-83
2021/07/13 02:54:37;;;;;;;8.85;5.20;;;15.30;99.90;;;;;;5022574;28;20052;-83
2021/07/13 02:57:05;;;;;;;9.68;4.97;;;15.30;99.90;;;;;;5027077;28;20049;-83
2021/07/13 02:59:34;;;;;;;7.57;4.45;;;15.30;99.90;;;;;;5001566;28;20343;-84
2021/07/13 03:02:02;;;;;;;7.53;4.43;;;15.30;99.90;;;;;;5004400;28;20200;-83
2021/07/13 03:04:30;;;;;;;7.50;4.95;;;15.30;99.90;;;;;;5007456;28;20045;-83
2021/07/13 03:06:59;;;;;;;6.32;4.57;;;15.30;99.90;;;;;;5026211;28;20045;-83
2021/07/13 03:09:26;;;;;;;6.82;4.15;;;15.20;99.90;;;;;;5029764;28;20371;-83
2021/07/13 03:11:54;;;;;;;7.13;4.13;;;15.20;99.90;;;;;;5013728;28;20045;-83
2021/07/13 03:14:22;;;;;;;4.60;3.97;;;15.20;99.90;;;;;;5003342;28;20054;-83
2021/07/13 03:16:49;;;;;;;7.07;4.43;;;15.20;99.90;;;;;;5017538;28;20141;-83
2021/07/13 03:19:16;;;;;;;7.78;4.38;;;15.20;99.90;;;;;;5026970;28;20064;-83
2021/07/13 03:21:50;;;;;;;7.97;4.55;;;15.10;99.90;;;;;;5033011;28;20145;-84
2021/07/13 03:24:18;;;;;;;9.23;4.70;;;15.20;99.90;;;;;;5014821;28;20132;-84
2021/07/13 03:26:47;;;;;;;6.88;4.53;;;15.20;99.90;;;;;;5032518;28;20045;-83
2021/07/13 03:29:15;;;;;;;8.35;4.50;;;15.10;99.90;;;;;;5012812;28;20483;-83
2021/07/13 03:31:43;;;;;;;6.63;3.90;;;15.10;99.90;;;;;;5010315;28;20045;-83
2021/07/13 03:34:10;;;;;;;8.20;3.88;;;15.10;99.90;;;;;;5013309;28;20320;-83
2021/07/13 03:36:38;;;;;;;4.38;3.63;;;15.10;99.90;;;;;;5011449;28;20053;-84
2021/07/13 03:39:06;;;;;;;5.40;3.72;;;15.00;99.90;;;;;;5013386;28;20048;-84
2021/07/13 03:41:35;;;;;;;5.78;4.00;;;15.00;99.90;;;;;;5014563;28;20121;-83
2021/07/13 03:44:05;;;;;;;4.53;3.30;;;15.00;99.90;;;;;;5014568;28;20140;-84
2021/07/13 03:46:36;;;;;;;5.55;3.53;;;15.00;99.90;;;;;;5012889;28;20141;-83
2021/07/13 03:49:06;;;;;;;6.25;3.47;;;15.00;99.90;;;;;;5032350;28;20072;-83
2021/07/13 03:51:44;;;;;;;4.85;3.45;;;15.10;99.90;;;;;;5016791;28;20065;-84
2021/07/13 03:54:14;;;;;;;4.68;3.47;;;15.10;99.90;;;;;;5010859;28;20046;-83
2021/07/13 03:56:42;;;;;;;5.85;3.50;;;15.10;99.90;;;;;;5031999;28;20059;-84
2021/07/13 03:59:09;;;;;;;5.13;3.70;;;15.20;99.90;;;;;;5013680;28;20531;-84
2021/07/13 04:01:36;;;;;;;6.05;3.30;;;15.20;99.90;;;;;;5029869;28;20041;-83
2021/07/13 04:04:05;;;;;;;5.60;3.60;;;15.20;99.90;;;;;;5011432;28;20051;-84
2021/07/13 04:06:32;;;;;;;5.65;3.60;;;15.20;99.90;;;;;;5030539;28;20045;-83
2021/07/13 04:09:05;;;;;;;6.00;3.50;;;15.20;99.90;;;;;;5010998;28;20483;-83
2021/07/13 04:11:33;;;;;;;8.60;4.63;;;15.20;99.90;;;;;;5031304;28;20045;-83
2021/07/13 04:14:00;;;;;;;6.50;4.15;;;15.20;99.90;;;;;;5016278;28;20041;-84
2021/07/13 04:16:28;;;;;;;5.78;4.25;;;15.30;99.90;;;;;;5020867;28;20056;-84
2021/07/13 04:18:55;;;;;;;7.32;4.95;;;15.20;99.90;;;;;;5016674;28;20049;-84
2021/07/13 04:21:22;;;;;;;9.07;4.53;;;15.30;99.90;;;;;;5014825;28;20486;-84
2021/07/13 04:23:51;;;;;;;8.00;5.15;;;15.30;99.90;;;;;;5013204;28;20046;-83
2021/07/13 04:26:18;;;;;;;13.82;6.53;;;15.30;99.90;;;;;;5020141;28;20497;-83
2021/07/13 04:28:45;;;;;;;9.43;6.00;;;15.30;99.90;;;;;;5014674;28;20052;-83
2021/07/13 04:31:12;;;;;;;15.93;7.22;;;15.30;99.90;;;;;;5013106;28;20049;-84
2021/07/13 04:33:40;;;;;;;10.20;7.15;;;15.30;99.90;;;;;;5022653;28;20046;-85
2021/07/13 04:36:07;;;;;;;11.07;7.57;;;15.30;99.90;;;;;;5010878;28;20084;-85
2021/07/13 04:38:33;;;;;;;11.60;8.52;;;15.30;99.90;;;;;;5031205;28;20057;-85
2021/07/13 04:41:01;;;;;;;10.93;8.43;;;15.30;99.90;;;;;;5013686;28;20056;-85
2021/07/13 04:43:27;;;;;;;11.48;8.43;;;15.30;99.90;;;;;;5031370;28;20045;-86
2021/07/13 04:45:58;;;;;;;10.20;7.97;;;15.30;99.90;;;;;;5030195;28;20129;-85
2021/07/13 04:48:25;;;;;;;16.92;8.93;;;15.30;99.90;;;;;;5013472;28;20464;-85
2021/07/13 04:50:52;;;;;;;15.10;9.40;;;15.30;99.90;;;;;;5012649;28;20049;-85
2021/07/13 04:53:19;;;;;;;12.23;8.75;;;15.30;99.90;;;;;;5008870;28;20049;-86
2021/07/13 04:55:46;;;;;;;13.23;9.40;;;15.30;99.90;;;;;;5012870;28;20041;-85
2021/07/13 04:58:13;;;;;;;12.88;9.55;;;15.40;99.90;;;;;;5007642;28;20052;-85
2021/07/13 05:00:40;;;;;;;12.82;9.32;;;15.40;99.90;;;;;;5028896;28;20045;-85
2021/07/13 05:03:06;;;;;;;11.48;9.18;;;15.30;99.90;;;;;;5012246;28;20042;-85
2021/07/13 05:05:39;;;;;;;12.15;8.45;;;15.30;99.90;;;;;;5012218;28;20045;-85
2021/07/13 05:08:06;;;;;;;8.75;7.10;;;15.30;99.90;;;;;;5022230;28;20046;-85
2021/07/13 05:10:33;;;;;;;10.75;7.70;;;15.40;99.90;;;;;;5007968;28;20375;-85
2021/07/13 05:13:00;;;;;;;13.73;6.60;;;15.30;99.90;;;;;;5016366;28;20041;-86
2021/07/13 05:15:27;;;;;;;11.02;7.05;;;15.40;99.90;;;;;;5012542;28;20505;-85
2021/07/13 05:17:57;;;;;;;8.02;5.93;;;15.40;99.90;;;;;;5019635;28;20050;-85
2021/07/13 05:20:24;;;;;;;7.82;6.75;;;15.40;99.90;;;;;;5015025;28;20045;-86
2021/07/13 05:22:58;;;;;;;9.90;7.03;;;15.40;99.90;;;;;;5015628;28;20434;-85
2021/07/13 05:25:29;;;;;;;9.10;7.40;;;15.40;99.90;;;;;;5015744;28;20455;-86
2021/07/13 05:27:56;;;;;;;11.02;6.70;;;15.50;99.90;;;;;;5015755;28;20056;-85
2021/07/13 05:30:23;;;;;;;14.73;7.45;;;15.50;99.90;;;;;;5010682;28;20495;-85
2021/07/13 05:32:52;;;;;;;8.52;6.63;;;15.50;99.90;;;;;;5014811;28;20045;-85
2021/07/13 05:35:20;;;;;;;11.10;6.90;;;15.50;99.90;;;;;;5030983;28;20041;-85
2021/07/13 05:37:48;;;;;;;10.20;6.85;;;15.50;99.90;;;;;;5015116;28;20046;-85
2021/07/13 05:40:15;;;;;;;8.57;6.10;;;15.50;99.90;;;;;;5026985;28;20041;-85
2021/07/13 05:42:43;;;;;;;10.45;6.72;;;15.50;99.90;;;;;;5024667;28;20046;-86
2021/07/13 05:45:10;;;;;;;10.82;6.63;;;15.50;99.90;;;;;;5008692;28;20041;-86
2021/07/13 05:47:37;;;;;;;12.45;6.43;;;15.50;99.90;;;;;;5020197;28;20052;-85
2021/07/13 05:50:06;;;;;;;8.38;6.35;;;15.60;99.90;;;;;;5012418;28;20049;-85
2021/07/13 05:52:34;;;;;;;10.60;6.75;;;15.60;99.90;;;;;;5012306;28;20045;-85
2021/07/13 05:55:01;;;;;;;12.00;6.75;;;15.60;99.90;;;;;;5013712;28;20038;-86
2021/07/13 05:57:28;;;;;;;14.38;6.70;;;15.60;99.90;;;;;;5015130;28;20542;-85
2021/07/13 05:59:55;;;;;;;15.15;6.63;;;15.60;99.90;;;;;;5017992;28;20104;-85
2021/07/13 06:02:26;;;;;;;18.35;7.18;;;15.60;99.90;;;;;;5018318;28;20037;-85
2021/07/13 06:04:53;;;;;;;10.07;6.43;;;15.60;99.90;;;;;;5014119;28;20053;-85
2021/07/13 06:07:20;;;;;;;12.60;6.03;;;15.60;99.90;;;;;;5013881;28;20041;-85
2021/07/13 06:09:47;;;;;;;14.38;7.25;;;15.60;99.90;;;;;;5012302;28;20042;-85
2021/07/13 06:12:14;;;;;;;14.07;6.78;;;15.60;99.90;;;;;;5049170;28;20487;-85
2021/07/13 06:14:41;;;;;;;13.45;6.28;;;15.60;99.90;;;;;;5034905;28;20096;-85
2021/07/13 06:17:08;;;;;;;17.65;7.10;;;15.60;99.90;;;;;;5014899;28;20050;-85
2021/07/13 06:19:35;;;;;;;17.27;6.90;;;15.70;99.90;;;;;;5035465;28;20045;-85
2021/07/13 06:22:03;;;;;;;24.48;6.85;;;15.70;99.90;;;;;;5017304;28;20413;-85
2021/07/13 06:24:30;;;;;;;21.80;6.95;;;15.70;99.90;;;;;;5017428;28;20087;-86
2021/07/13 06:26:57;;;;;;;25.67;6.88;;;15.80;99.90;;;;;;5017506;28;20053;-85
2021/07/13 06:29:24;;;;;;;17.17;6.82;;;15.80;99.90;;;;;;5027324;28;20440;-85
2021/07/13 06:31:52;;;;;;;22.90;8.75;;;15.80;99.90;;;;;;5018427;28;20060;-86
2021/07/13 06:34:20;;;;;;;;;;;15.80;99.90;;;;;;5015687;28;20045;-87
2021/07/13 06:36:47;;;;;;;18.23;7.13;;;15.80;99.90;;;;;;5034928;28;20032;-87
2021/07/13 06:39:15;;;;;;;20.98;7.20;;;15.80;99.90;;;;;;5032606;28;20069;-87
2021/07/13 06:41:42;;;;;;;18.67;6.85;;;15.80;99.90;;;;;;5017475;28;20053;-85
2021/07/13 06:44:10;;;;;;;23.13;6.85;;;15.90;99.90;;;;;;5032236;28;20045;-85
2021/07/13 06:46:38;;;;;;;19.23;7.10;;;15.90;99.90;;;;;;5015839;28;20041;-84
2021/07/13 06:49:05;;;;;;;18.47;7.07;;;15.90;99.90;;;;;;5014347;28;20148;-85
2021/07/13 06:51:32;;;;;;;25.63;6.85;;;15.90;99.90;;;;;;5027878;28;20072;-83
2021/07/13 06:53:59;;;;;;;22.00;6.80;;;15.90;99.90;;;;;;5015873;28;20090;-83
2021/07/13 06:56:26;;;;;;;20.83;6.75;;;15.90;99.90;;;;;;5028058;28;20467;-83
2021/07/13 06:58:53;;;;;;;22.27;7.88;;;15.90;99.90;;;;;;5017620;28;20056;-83
2021/07/13 07:01:20;;;;;;;25.88;8.45;;;15.90;99.90;;;;;;5035836;28;20045;-83
2021/07/13 07:03:47;;;;;;;20.98;7.32;;;15.90;99.90;;;;;;5005217;28;20476;-83
2021/07/13 07:06:14;;;;;;;25.75;7.70;;;15.90;99.90;;;;;;5006172;28;20431;-83
2021/07/13 07:08:41;;;;;;;22.10;8.07;;;15.90;99.90;;;;;;5028793;28;20118;-84
2021/07/13 07:11:10;;;;;;;26.45;8.35;;;15.80;99.90;;;;;;5013051;28;20042;-84
2021/07/13 07:13:38;;;;;;;18.03;7.33;;;15.80;99.90;;;;;;5009130;28;20061;-87
2021/07/13 07:16:06;;;;;;;22.13;9.18;;;15.80;99.90;;;;;;5011794;28;20303;-85
2021/07/13 07:18:33;;;;;;;22.40;9.35;;;15.70;99.90;;;;;;5013326;28;20068;-83
2021/07/13 07:21:00;;;;;;;22.17;8.50;;;15.70;99.90;;;;;;5014621;28;20129;-84
2021/07/13 07:23:27;;;;;;;25.42;8.75;;;15.70;99.90;;;;;;5015202;28;20045;-84
2021/07/13 07:25:54;;;;;;;25.33;8.85;;;15.70;99.90;;;;;;5013623;28;20073;-86
2021/07/13 07:28:23;;;;;;;26.13;9.48;;;15.70;99.90;;;;;;5005149;28;20057;-84
2021/07/13 07:30:50;;;;;;;23.90;8.93;;;15.80;99.90;;;;;;5026115;28;20539;-84
2021/07/13 07:33:17;;;;;;;17.85;7.95;;;15.80;99.90;;;;;;5015329;28;20102;-84
2021/07/13 07:35:44;;;;;;;19.52;8.68;;;15.80;99.90;;;;;;5011901;28;20038;-83
2021/07/13 07:38:12;;;;;;;21.58;8.82;;;15.80;99.90;;;;;;4991460;28;20050;-85
2021/07/13 07:40:40;;;;;;;18.38;7.97;;;15.80;99.90;;;;;;4991533;28;20042;-84
2021/07/13 07:43:07;;;;;;;12.85;7.05;;;15.80;99.90;;;;;;5005763;28;20042;-84
2021/07/13 07:45:34;;;;;;;23.63;8.10;;;15.70;99.90;;;;;;4989766;28;20058;-84
2021/07/13 07:48:03;;;;;;;18.17;7.38;;;15.70;99.90;;;;;;4985168;28;20157;-84
2021/07/13 07:50:30;;;;;;;20.42;8.10;;;15.70;99.90;;;;;;5010716;28;20050;-84
2021/07/13 07:52:58;;;;;;;23.77;8.32;;;15.70;99.90;;;;;;4987925;28;20484;-84
2021/07/13 07:55:26;;;;;;;16.17;7.55;;;15.70;99.90;;;;;;4992753;28;20052;-84
2021/07/13 07:57:54;;;;;;;;;;;15.70;99.90;;;;;;4992933;28;20054;-84
2021/07/13 08:00:21;;;;;;;24.15;8.00;;;15.60;99.90;;;;;;4991317;28;19935;-84
2021/07/13 08:02:48;;;;;;;23.13;8.52;;;15.60;99.90;;;;;;4994512;28;20049;-83
2021/07/13 08:05:16;;;;;;;26.25;8.90;;;15.70;99.90;;;;;;4996525;28;20042;-84
2021/07/13 08:07:44;;;;;;;25.05;9.95;;;15.70;99.90;;;;;;4995027;28;20045;-83
2021/07/13 08:10:13;;;;;;;24.58;9.25;;;15.70;99.90;;;;;;5008663;28;20136;-84
2021/07/13 08:12:42;;;;;;;24.25;8.50;;;15.70;99.90;;;;;;4993798;28;20056;-83
2021/07/13 08:15:10;;;;;;;26.23;8.10;;;15.80;99.90;;;;;;4999226;28;20479;-83
2021/07/13 08:17:38;;;;;;;23.52;8.90;;;15.80;99.90;;;;;;4995514;28;20131;-83
2021/07/13 08:20:09;;;;;;;26.58;9.00;;;15.90;99.90;;;;;;5010790;28;20045;-83
2021/07/13 08:22:37;;;;;;;21.10;8.50;;;15.90;99.90;;;;;;4990656;28;20049;-84
2021/07/13 08:25:05;;;;;;;19.47;8.63;;;16.00;99.90;;;;;;5003616;28;20550;-85
2021/07/13 08:27:32;;;;;;;19.48;8.05;;;16.10;99.90;;;;;;4992465;28;20056;-84
2021/07/13 08:29:59;;;;;;;19.85;7.82;;;16.10;99.90;;;;;;4990051;28;20357;-84
2021/07/13 08:32:26;;;;;;;18.75;8.27;;;16.20;99.90;;;;;;5005035;28;20456;-84
2021/07/13 08:34:53;;;;;;;22.13;8.45;;;16.20;99.90;;;;;;5018260;28;20045;-84
2021/07/13 08:37:21;;;;;;;21.02;8.82;;;16.20;99.90;;;;;;5010965;28;20037;-84
2021/07/13 08:39:48;;;;;;;21.38;8.40;;;16.20;99.90;;;;;;5005879;28;20037;-84
2021/07/13 08:42:16;;;;;;;23.05;8.13;;;16.30;99.90;;;;;;5012286;28;20037;-85
2021/07/13 08:44:43;;;;;;;19.90;7.78;;;16.30;99.90;;;;;;5029165;28;20637;-85
2021/07/13 08:47:15;;;;;;;17.58;7.90;;;16.30;99.90;;;;;;5009575;28;20044;-85
2021/07/13 08:49:44;;;;;;;19.40;8.63;;;16.30;99.90;;;;;;5008344;28;20045;-85
2021/07/13 08:52:13;;;;;;;23.13;8.65;;;16.30;99.90;;;;;;5007814;28;20045;-86
2021/07/13 08:54:40;;;;;;;17.80;8.40;;;16.30;99.90;;;;;;5004575;28;20380;-86
2021/07/13 08:57:09;;;;;;;25.10;8.40;;;16.30;99.90;;;;;;5001519;28;20060;-84
2021/07/13 08:59:38;;;;;;;18.85;8.60;;;16.40;99.90;;;;;;5001640;28;20250;-84
2021/07/13 09:02:05;;;;;;;18.83;8.20;;;16.40;99.90;;;;;;5008215;28;20048;-85
2021/07/13 09:04:36;;;;;;;23.40;7.70;;;16.50;99.90;;;;;;5009537;28;20056;-84
2021/07/13 09:07:07;;;;;;;15.32;7.28;;;16.70;99.90;;;;;;4997463;28;20136;-84
2021/07/13 09:09:35;;;;;;;16.98;7.25;;;16.70;99.90;;;;;;5007645;28;20049;-84
2021/07/13 09:12:12;;;;;;;19.05;6.90;;;16.80;99.90;;;;;;5008406;28;20060;-85
2021/07/13 09:15:05;;;;;;;22.95;7.78;;;16.80;99.90;;;;;;5029400;28;20048;-85
2021/07/13 09:17:35;;;;;;;18.10;7.43;;;16.90;99.90;;;;;;5011230;28;20068;-85
2021/07/13 09:20:10;;;;;;;16.63;7.97;;;16.90;99.90;;;;;;5008191;28;20410;-84
2021/07/13 09:22:51;;;;;;;17.55;8.07;;;16.90;99.90;;;;;;5011089;28;20086;-84
2021/07/13 09:25:27;;;;;;;17.05;7.85;;;16.80;99.90;;;;;;5002813;28;20517;-84
2021/07/13 09:28:14;;;;;;;16.45;7.30;;;16.80;99.90;;;;;;5010884;28;20045;-84
2021/07/13 09:30:53;;;;;;;19.40;7.65;;;16.80;99.90;;;;;;5009605;28;20049;-84
2021/07/13 09:33:31;;;;;;;19.60;7.70;;;16.80;99.90;;;;;;5009898;28;20060;-85
2021/07/13 09:36:03;;;;;;;16.38;7.18;;;16.80;99.90;;;;;;5007223;28;20515;-85
2021/07/13 09:38:33;;;;;;;18.73;7.75;;;16.70;99.90;;;;;;5018036;28;20045;-84
2021/07/13 09:41:05;;;;;;;21.73;8.52;;;16.80;99.90;;;;;;5026760;28;20056;-85
2021/07/13 09:43:43;;;;;;;19.20;8.27;;;16.70;99.90;;;;;;5008542;28;20041;-84
2021/07/13 09:46:28;;;;;;;19.27;8.45;;;16.70;99.90;;;;;;5006861;28;20395;-85
2021/07/13 09:49:08;;;;;;;20.23;8.32;;;16.80;99.90;;;;;;5022052;28;20049;-84
2021/07/13 09:51:37;;;;;;;20.05;9.20;;;16.90;99.90;;;;;;5019597;28;20045;-85
2021/07/13 09:54:34;;;;;;;20.27;8.70;;;17.00;99.90;;;;;;4997424;28;20038;-84
2021/07/13 09:57:27;;;;;;;16.55;7.72;;;17.20;99.90;;;;;;5041503;28;20049;-84
2021/07/13 09:59:58;;;;;;;21.92;8.38;;;17.30;99.90;;;;;;5024538;28;20052;-85
2021/07/13 10:02:26;;;;;;;23.25;7.60;;;17.40;99.90;;;;;;5000738;28;20041;-84
2021/07/13 10:04:56;;;;;;;20.83;7.53;;;17.60;99.90;;;;;;5008971;28;20057;-85
2021/07/13 10:07:27;;;;;;;25.75;9.27;;;17.60;99.90;;;;;;4999110;28;20144;-85
2021/07/13 10:10:03;;;;;;;25.27;8.77;;;17.60;99.90;;;;;;5000570;28;20041;-85
2021/07/13 10:12:32;;;;;;;23.05;9.43;;;17.50;99.90;;;;;;5010235;28;20069;-85
2021/07/13 10:15:00;;;;;;;21.23;9.63;;;17.60;99.90;;;;;;5012100;28;20049;-85
2021/07/13 10:17:29;;;;;;;19.52;8.60;;;17.50;99.90;;;;;;5010174;28;20045;-85
2021/07/13 10:20:01;;;;;;;23.40;9.25;;;17.60;99.90;;;;;;4995299;28;20049;-85
2021/07/13 10:22:29;;;;;;;19.42;8.95;;;17.70;99.90;;;;;;5022356;28;20046;-85
2021/07/13 10:24:59;;;;;;;19.25;7.93;;;17.80;99.90;;;;;;5029288;28;20046;-85
2021/07/13 10:27:33;;;;;;;22.00;8.45;;;17.90;99.90;;;;;;5009345;28;20049;-85
2021/07/13 10:30:07;;;;;;;21.17;8.07;;;18.00;99.90;;;;;;5010532;28;20046;-85
2021/07/13 10:32:39;;;;;;;24.60;8.30;;;18.20;99.90;;;;;;5005611;28;20124;-85
2021/07/13 10:35:23;;;;;;;18.42;7.80;;;18.40;99.90;;;;;;5007303;28;20050;-85
2021/07/13 10:37:57;;;;;;;18.63;8.07;;;18.50;99.90;;;;;;5025886;28;20041;-85
2021/07/13 10:40:27;;;;;;;18.90;7.75;;;18.60;99.90;;;;;;5017159;28;20387;-85
2021/07/13 10:42:58;;;;;;;16.48;7.05;;;18.60;99.90;;;;;;5012533;28;20395;-85
2021/07/13 10:45:27;;;;;;;14.73;7.18;;;18.50;99.90;;;;;;5010389;28;20060;-83
2021/07/13 10:47:56;;;;;;;20.92;7.35;;;18.60;99.90;;;;;;5028702;28;20104;-83
2021/07/13 10:50:32;;;;;;;15.57;6.57;;;18.80;99.90;;;;;;5029491;28;20399;-84
2021/07/13 10:53:14;;;;;;;15.80;6.25;;;19.00;99.90;;;;;;5025208;28;20049;-84
2021/07/13 10:55:48;;;;;;;17.80;6.35;;;19.10;99.90;;;;;;5013901;28;20046;-85
2021/07/13 10:58:15;;;;;;;15.95;6.68;;;19.20;99.90;;;;;;5013741;28;20042;-85
2021/07/13 11:00:48;;;;;;;12.52;6.72;;;19.40;99.90;;;;;;5029766;28;20052;-84
2021/07/13 11:03:27;;;;;;;14.20;6.82;;;19.50;99.90;;;;;;5007898;28;20041;-84
2021/07/13 11:05:56;;;;;;;13.45;6.32;;;19.60;99.90;;;;;;5025676;28;20041;-84
2021/07/13 11:08:51;;;;;;;18.77;6.47;;;19.60;99.90;;;;;;5019400;28;20434;-84
2021/07/13 11:11:20;;;;;;;14.77;7.07;;;19.70;99.90;;;;;;5012579;28;20041;-85
2021/07/13 11:13:54;;;;;;;16.58;6.55;;;19.80;99.90;;;;;;5025426;28;20334;-85
2021/07/13 11:16:30;;;;;;;16.77;6.90;;;19.90;99.90;;;;;;5006057;28;20054;-85
2021/07/13 11:18:59;;;;;;;23.17;6.88;;;19.80;99.90;;;;;;5006659;28;20045;-85
2021/07/13 11:21:36;;;;;;;15.13;6.28;;;19.80;99.90;;;;;;5008197;28;20045;-86
2021/07/13 11:24:04;;;;;;;11.77;6.93;;;19.70;99.90;;;;;;5006702;28;20076;-85
2021/07/13 11:26:33;;;;;;;9.30;5.80;;;19.50;99.90;;;;;;5003848;28;20743;-85
2021/07/13 11:29:05;;;;;;;16.38;6.85;;;19.50;99.90;;;;;;5008333;28;20054;-85
2021/07/13 11:31:37;;;;;;;11.00;6.63;;;19.50;99.90;;;;;;5001935;28;20038;-85
2021/07/13 11:34:13;;;;;;;13.63;7.20;;;19.40;99.90;;;;;;5006621;28;20061;-85
2021/07/13 11:36:50;;;;;;;12.80;6.82;;;19.40;99.90;;;;;;5006039;28;20056;-85
2021/07/13 11:39:33;;;;;;;17.75;6.80;;;19.40;99.90;;;;;;5004546;28;20045;-85
2021/07/13 11:42:06;;;;;;;14.32;6.88;;;19.60;99.90;;;;;;5007400;28;20046;-85
2021/07/13 11:44:38;;;;;;;12.85;6.93;;;19.60;99.90;;;;;;5025272;28;20053;-85
2021/07/13 11:47:13;;;;;;;12.18;6.80;;;19.50;99.90;;;;;;5026627;28;20080;-85
2021/07/13 11:49:41;;;;;;;18.38;7.00;;;19.50;99.90;;;;;;5010165;28;20034;-85
2021/07/13 11:52:13;;;;;;;10.85;7.05;;;19.30;99.90;;;;;;5010905;28;20053;-85
2021/07/13 11:54:42;;;;;;;15.90;7.78;;;19.20;99.90;;;;;;5009987;28;20072;-85
2021/07/13 11:57:18;;;;;;;16.33;7.35;;;19.10;99.90;;;;;;5011218;28;20132;-85
2021/07/13 11:59:45;;;;;;;14.85;7.20;;;19.10;99.90;;;;;;5006553;28;20046;-85
2021/07/13 12:02:13;;;;;;;16.98;7.72;;;19.20;99.90;;;;;;5006748;28;20045;-85
2021/07/13 12:04:43;;;;;;;15.15;7.10;;;19.20;99.90;;;;;;5027754;28;20041;-85
2021/07/13 12:07:11;;;;;;;13.68;7.30;;;19.20;99.90;;;;;;5015416;28;20045;-85
2021/07/13 12:09:40;;;;;;;16.65;8.00;;;19.10;99.90;;;;;;4998646;28;20053;-85
2021/07/13 12:12:09;;;;;;;;;;;19.00;99.90;;;;;;5011010;28;20056;-85
2021/07/13 12:14:37;;;;;;;;;;;19.00;99.90;;;;;;5019225;28;19933;-85
2021/07/13 12:17:06;;;;;;;13.73;6.95;;;19.10;99.90;;;;;;5002094;28;19925;-85
2021/07/13 12:19:34;;;;;;;18.83;8.43;;;19.10;99.90;;;;;;5011578;28;20057;-85
2021/07/13 12:22:07;;;;;;;19.55;7.90;;;19.00;99.90;;;;;;4998906;28;20052;-85
2021/07/13 12:24:40;;;;;;;17.95;9.23;;;19.00;99.90;;;;;;4997377;28;20046;-85
2021/07/13 12:27:10;;;;;;;17.05;8.20;;;19.10;99.90;;;;;;5017784;28;20042;-85
2021/07/13 12:29:39;;;;;;;21.45;8.77;;;19.10;99.90;;;;;;5001454;28;20299;-85
2021/07/13 12:32:14;;;;;;;14.85;8.23;;;19.20;99.90;;;;;;4998799;28;20430;-85
2021/07/13 12:34:42;;;;;;;18.08;8.30;;;19.20;99.90;;;;;;5018499;28;20487;-85
2021/07/13 12:37:19;;;;;;;15.00;8.37;;;19.20;99.90;;;;;;5013547;28;20041;-85
2021/07/13 12:39:51;;;;;;;21.23;8.60;;;19.30;99.90;;;;;;5002442;28;20300;-85
2021/07/13 12:42:24;;;;;;;16.33;8.07;;;19.30;99.90;;;;;;5019356;28;20050;-85
2021/07/13 12:45:04;;;;;;;14.07;7.88;;;19.40;99.90;;;;;;5009108;28;20044;-85
2021/07/13 12:47:34;;;;;;;13.63;7.15;;;19.40;99.90;;;;;;5008943;28;20042;-85
2021/07/13 12:50:15;;;;;;;17.90;7.60;;;19.40;99.90;;;;;;5005683;28;20048;-86
2021/07/13 12:53:04;;;;;;;21.30;7.82;;;19.50;99.90;;;;;;5004917;28;20045;-85
2021/07/13 12:55:37;;;;;;;15.80;7.72;;;19.60;99.90;;;;;;5000909;28;20376;-85